Time;durP1;ratioP1;P1;durP2;ratioP2;P2;SDS_P1;SDS_P2;PMS_P1;PMS_P2;Temp;Humidity;BMP_temperature;BMP_pressure;BME280_temperature;BME280_humidity;BME280_pressure;Samples;Min_cycle;Max_cycle;Signal;HPM_P1;HPM_P2
2023/10/03 00:00:58;;;;;;;8.60;4.20;;;;;;;24.71;33.95;101907.33;102703;1297;62224;-79
2023/10/03 00:03:24;;;;;;;10.00;4.70;;;;;;;24.72;33.96;101905.12;102736;1297;62099;-81
2023/10/03 00:05:51;;;;;;;9.40;4.10;;;;;;;24.72;33.93;101899.94;102833;1292;62354;-81
2023/10/03 00:08:17;;;;;;;8.40;4.00;;;;;;;24.71;33.89;101898.69;102755;1295;62107;-81
2023/10/03 00:10:43;;;;;;;11.80;4.90;;;;;;;24.71;33.94;101899.05;102737;1297;62172;-81
2023/10/03 00:13:08;;;;;;;6.90;4.40;;;;;;;24.71;33.96;101895.08;102748;1297;63467;-80
2023/10/03 00:15:35;;;;;;;8.50;4.30;;;;;;;24.71;33.85;101896.33;102704;1296;63413;-80
2023/10/03 00:18:00;;;;;;;8.70;4.70;;;;;;;24.72;33.90;101892.38;102718;1293;62291;-81
2023/10/03 00:20:26;;;;;;;10.10;4.50;;;;;;;24.72;33.81;101896.52;102711;1293;62171;-81
2023/10/03 00:22:51;;;;;;;8.50;4.30;;;;;;;24.71;33.89;101897.77;102786;1295;63405;-79
2023/10/03 00:25:18;;;;;;;9.70;4.40;;;;;;;24.72;33.84;101899.20;102749;1297;72568;-81
2023/10/03 00:27:55;;;;;;;8.80;4.50;;;;;;;24.72;33.82;101898.12;102651;1292;62240;-82
2023/10/03 00:30:24;;;;;;;7.70;4.10;;;;;;;24.72;34.05;101895.77;102732;1294;62233;-80
2023/10/03 00:32:51;;;;;;;6.70;4.00;;;;;;;24.72;33.89;101895.61;102774;1293;63339;-79
2023/10/03 00:35:19;;;;;;;10.40;4.70;;;;;;;24.71;33.87;101893.84;102769;1293;72669;-80
2023/10/03 00:37:46;;;;;;;7.90;4.30;;;;;;;24.71;33.85;101894.73;102678;1299;66765;-80
2023/10/03 00:42:48;;;;;;;7.50;4.30;;;;;;;24.71;33.95;101893.29;102672;1293;62238;-81
2023/10/03 00:45:21;;;;;;;8.60;4.30;;;;;;;24.71;33.80;101894.05;102699;1294;63336;-80
2023/10/03 00:47:57;;;;;;;8.30;4.30;;;;;;;24.71;33.88;101890.64;102739;1291;75223;-81
2023/10/03 00:50:25;;;;;;;7.70;4.00;;;;;;;24.71;33.85;101892.05;102723;1296;62101;-81
2023/10/03 00:52:55;;;;;;;9.60;4.30;;;;;;;24.71;33.93;101891.55;102722;1297;62224;-80
2023/10/03 00:55:30;;;;;;;10.30;4.40;;;;;;;24.71;33.87;101889.35;102746;1297;73460;-80
2023/10/03 00:58:31;;;;;;;11.20;4.90;;;;;;;24.71;33.89;101891.00;102821;1294;76544;-81
2023/10/03 01:00:49;;;;;;;9.70;4.20;;;;;;;24.69;33.80;101889.30;102664;1292;63427;-81
2023/10/03 01:03:27;;;;;;;8.50;4.10;;;;;;;24.70;33.73;101886.87;102788;1296;62162;-81
2023/10/03 01:05:54;;;;;;;9.70;4.20;;;;;;;24.71;33.83;101884.89;102744;1295;72293;-80
2023/10/03 01:08:23;;;;;;;9.00;4.10;;;;;;;24.70;33.79;101886.86;102738;1295;75034;-81
2023/10/03 01:10:50;;;;;;;9.10;4.00;;;;;;;24.70;33.83;101881.31;102742;1293;62643;-81
2023/10/03 01:13:19;;;;;;;8.20;4.30;;;;;;;24.70;33.80;101877.89;102665;1297;62153;-81
2023/10/03 01:15:52;;;;;;;7.90;4.10;;;;;;;24.70;33.81;101877.01;102706;1297;72686;-82
2023/10/03 01:18:20;;;;;;;9.80;4.10;;;;;;;24.70;33.76;101876.27;102743;1293;75273;-81
2023/10/03 01:21:00;;;;;;;8.10;4.40;;;;;;;24.70;33.82;101873.21;102766;1296;62189;-80
2023/10/03 01:23:34;;;;;;;9.20;4.70;;;;;;;24.70;33.72;101874.31;102688;1294;62130;-81
2023/10/03 01:26:00;;;;;;;8.10;4.00;;;;;;;24.69;33.80;101871.30;102789;1297;72504;-79
2023/10/03 01:28:26;;;;;;;7.30;4.10;;;;;;;24.69;33.79;101874.38;102701;1294;62288;-81
2023/10/03 01:30:52;;;;;;;8.60;4.40;;;;;;;24.70;33.87;101875.77;102699;1294;62262;-81
2023/10/03 01:33:17;;;;;;;8.00;3.90;;;;;;;24.70;33.74;101875.05;102741;1294;63583;-80
2023/10/03 01:35:43;;;;;;;8.90;4.30;;;;;;;24.69;33.79;101873.45;102659;1295;62201;-81
2023/10/03 01:38:08;;;;;;;8.50;4.40;;;;;;;24.69;33.79;101871.12;102769;1297;62778;-80
2023/10/03 01:40:36;;;;;;;7.50;4.30;;;;;;;24.69;33.81;101867.52;102776;1297;75267;-80
2023/10/03 01:43:02;;;;;;;7.70;4.30;;;;;;;24.69;33.81;101868.81;102798;1294;62251;-80
2023/10/03 01:45:28;;;;;;;8.70;4.50;;;;;;;24.69;33.73;101868.98;102704;1294;62318;-80
2023/10/03 01:47:58;;;;;;;12.10;4.70;;;;;;;24.68;33.77;101866.13;102744;1292;62309;-80
2023/10/03 01:50:24;;;;;;;9.20;4.60;;;;;;;24.68;33.79;101868.63;102831;1292;74293;-81
2023/10/03 01:52:51;;;;;;;8.30;3.90;;;;;;;24.68;33.76;101867.41;102680;1297;62138;-80
2023/10/03 01:55:18;;;;;;;8.70;4.10;;;;;;;24.69;33.80;101863.44;102682;1294;62206;-81
2023/10/03 01:57:44;;;;;;;7.40;3.70;;;;;;;24.69;33.84;101869.35;102792;1294;63362;-81
2023/10/03 02:00:20;;;;;;;7.50;3.90;;;;;;;24.69;33.81;101865.23;102720;1294;62758;-80
2023/10/03 02:02:47;;;;;;;8.30;4.20;;;;;;;24.68;33.70;101864.16;102739;1295;62178;-81
2023/10/03 02:05:14;;;;;;;8.10;4.50;;;;;;;24.68;33.69;101865.45;102648;1294;62131;-81
2023/10/03 02:07:42;;;;;;;9.60;4.40;;;;;;;24.69;33.70;101866.67;102796;1292;72510;-81
2023/10/03 02:10:12;;;;;;;8.90;4.30;;;;;;;24.68;33.75;101862.90;102693;1294;76028;-80
2023/10/03 02:12:48;;;;;;;9.50;4.30;;;;;;;24.68;33.72;101862.23;102712;1292;62233;-82
2023/10/03 02:15:23;;;;;;;8.90;4.20;;;;;;;24.68;33.72;101863.31;102726;1294;62073;-82
2023/10/03 02:17:56;;;;;;;7.90;4.20;;;;;;;24.68;33.81;101864.02;102731;1292;72462;-80
2023/10/03 02:20:25;;;;;;;7.60;4.10;;;;;;;24.68;33.64;101860.43;102890;1294;75173;-80
2023/10/03 02:22:54;;;;;;;8.60;4.40;;;;;;;24.68;33.76;101858.26;102746;1293;63603;-81
2023/10/03 02:25:24;;;;;;;7.30;4.00;;;;;;;24.68;33.73;101854.50;102711;1297;62138;-80
2023/10/03 02:27:51;;;;;;;10.40;4.30;;;;;;;24.67;33.80;101850.02;102700;1294;72538;-81
2023/10/03 02:30:23;;;;;;;7.30;4.10;;;;;;;24.67;33.76;101851.84;102730;1297;66473;-80
2023/10/03 02:32:53;;;;;;;8.10;3.90;;;;;;;24.67;33.76;101849.84;102705;1294;62211;-81
2023/10/03 02:35:24;;;;;;;9.40;4.30;;;;;;;24.67;33.75;101847.16;102719;1293;62494;-81
2023/10/03 02:37:52;;;;;;;7.80;4.40;;;;;;;24.67;33.74;101841.98;102801;1294;63706;-81
2023/10/03 02:40:22;;;;;;;10.40;4.40;;;;;;;24.67;33.69;101843.73;102750;1294;75474;-80
2023/10/03 02:42:51;;;;;;;9.50;4.30;;;;;;;24.67;33.60;101839.45;102832;1294;62114;-80
2023/10/03 02:45:19;;;;;;;8.70;4.50;;;;;;;24.67;33.70;101835.13;102515;1296;62375;-80
2023/10/03 02:47:45;;;;;;;9.40;4.10;;;;;;;24.67;33.69;101835.31;102747;1294;73494;-80
2023/10/03 02:50:13;;;;;;;8.90;4.70;;;;;;;24.67;33.75;101838.52;102787;1293;66478;-82
2023/10/03 02:52:39;;;;;;;8.80;4.20;;;;;;;24.67;33.72;101836.02;102740;1293;62133;-80
2023/10/03 02:55:09;;;;;;;9.50;4.80;;;;;;;24.67;33.75;101839.09;102764;1295;62153;-81
2023/10/03 02:57:38;;;;;;;8.80;4.40;;;;;;;24.66;33.78;101838.92;102758;1293;63888;-79
2023/10/03 03:00:15;;;;;;;8.10;4.30;;;;;;;24.66;33.77;101839.48;102747;1292;66585;-82
2023/10/03 03:02:47;;;;;;;8.20;4.30;;;;;;;24.66;33.72;101838.60;102732;1294;62221;-80
2023/10/03 03:05:17;;;;;;;7.60;4.00;;;;;;;24.65;33.78;101838.98;102541;1294;333422;-81
2023/10/03 03:07:46;;;;;;;7.70;4.20;;;;;;;24.66;33.85;101839.15;102718;1294;64910;-82
2023/10/03 03:10:17;;;;;;;9.60;4.20;;;;;;;24.66;33.74;101840.61;102738;1292;66510;-82
2023/10/03 03:12:46;;;;;;;10.50;4.40;;;;;;;24.66;33.77;101840.24;102770;1294;62237;-80
2023/10/03 03:15:22;;;;;;;;;;;;;;;24.66;33.75;101846.16;102755;1293;62083;-81
2023/10/03 03:17:51;;;;;;;8.60;4.30;;;;;;;24.63;33.78;101847.09;102616;1295;71228;-81
2023/10/03 03:20:26;;;;;;;7.20;4.10;;;;;;;24.63;33.73;101847.25;102741;1294;66612;-81
2023/10/03 03:22:52;;;;;;;7.60;4.10;;;;;;;24.64;33.83;101847.20;102693;1297;62103;-80
2023/10/03 03:25:37;;;;;;;9.80;4.90;;;;;;;24.64;33.71;101848.85;102769;1292;62189;-81
2023/10/03 03:28:13;;;;;;;8.60;4.40;;;;;;;24.63;33.80;101848.36;102757;1295;63924;-79
2023/10/03 03:30:55;;;;;;;9.40;4.60;;;;;;;24.63;33.73;101847.79;102757;1291;75324;-80
2023/10/03 03:33:21;;;;;;;9.50;4.60;;;;;;;24.62;33.63;101849.13;102695;1295;62298;-81
2023/10/03 03:35:48;;;;;;;12.30;5.20;;;;;;;24.62;33.61;101851.45;102729;1292;62199;-81
2023/10/03 03:38:20;;;;;;;9.90;5.10;;;;;;;24.60;33.59;101850.48;102701;1294;62916;-81
2023/10/03 03:40:59;;;;;;;12.50;5.40;;;;;;;24.58;33.55;101854.91;102718;1294;75276;-80
2023/10/03 03:43:25;;;;;;;11.10;5.50;;;;;;;24.56;33.52;101858.10;102786;1293;62678;-81
2023/10/03 03:45:52;;;;;;;10.70;4.70;;;;;;;24.55;33.35;101858.73;102764;1294;62118;-81
2023/10/03 03:48:21;;;;;;;10.70;4.80;;;;;;;24.54;33.30;101859.52;102719;1297;62827;-81
2023/10/03 03:50:49;;;;;;;9.70;5.40;;;;;;;24.53;33.21;101857.45;102724;1293;75469;-84
2023/10/03 03:53:16;;;;;;;13.50;5.20;;;;;;;24.53;33.19;101858.90;103165;1296;62139;-81
2023/10/03 03:55:42;;;;;;;9.80;5.20;;;;;;;24.52;33.14;101857.35;103181;1295;62073;-81
2023/10/03 03:58:14;;;;;;;10.30;4.90;;;;;;;24.52;33.09;101859.36;103160;1294;63376;-81
2023/10/03 04:00:45;;;;;;;11.20;5.60;;;;;;;24.51;33.05;101859.20;103172;1294;75329;-79
2023/10/03 04:03:13;;;;;;;12.40;5.20;;;;;;;24.50;33.01;101856.40;103302;1296;62123;-80
2023/10/03 04:05:40;;;;;;;10.00;4.80;;;;;;;24.50;32.99;101855.32;103269;1293;62088;-79
2023/10/03 04:08:07;;;;;;;13.90;5.60;;;;;;;24.49;32.89;101853.75;103532;1293;72438;-81
2023/10/03 04:10:34;;;;;;;11.10;4.80;;;;;;;24.48;32.96;101855.83;102960;1294;66687;-79
2023/10/03 04:13:00;;;;;;;14.30;5.40;;;;;;;24.46;32.98;101857.56;103426;1294;62292;-80
2023/10/03 04:15:26;;;;;;;12.70;5.40;;;;;;;24.45;33.04;101859.97;106080;1292;59206;-80
2023/10/03 04:17:51;;;;;;;14.40;5.80;;;;;;;24.43;33.00;101860.47;105992;1292;59752;-81
2023/10/03 04:20:25;;;;;;;14.80;5.60;;;;;;;24.41;32.98;101858.13;103192;1294;62572;-79
2023/10/03 04:22:51;;;;;;;13.80;5.20;;;;;;;24.38;32.91;101864.97;103166;1292;62125;-79
2023/10/03 04:25:19;;;;;;;10.20;4.70;;;;;;;24.34;32.85;101866.49;103073;1294;62284;-79
2023/10/03 04:27:47;;;;;;;15.00;5.70;;;;;;;24.32;32.91;101873.27;103325;1294;72667;-80
2023/10/03 04:30:13;;;;;;;12.00;5.60;;;;;;;24.30;32.85;101877.05;103424;1295;75134;-79
2023/10/03 04:32:47;;;;;;;12.00;5.40;;;;;;;24.27;32.89;101879.04;103153;1295;62212;-80
2023/10/03 04:35:14;;;;;;;11.00;5.70;;;;;;;24.24;32.79;101880.10;103566;1293;62079;-79
2023/10/03 04:37:41;;;;;;;19.70;5.50;;;;;;;24.22;32.81;101880.61;103411;1293;62677;-79
2023/10/03 04:40:11;;;;;;;10.80;4.90;;;;;;;24.21;32.78;101887.16;103415;1295;75002;-80
2023/10/03 04:42:38;;;;;;;10.30;4.40;;;;;;;24.21;32.96;101880.66;103302;1293;63230;-81
2023/10/03 04:45:07;;;;;;;11.60;5.30;;;;;;;24.22;33.08;101885.33;103704;1297;62000;-80
2023/10/03 04:47:34;;;;;;;11.10;4.50;;;;;;;24.21;33.19;101885.92;103752;1293;72449;-81
2023/10/03 04:50:00;;;;;;;12.40;5.20;;;;;;;24.19;33.29;101889.80;104073;1294;62210;-80
2023/10/03 04:52:26;;;;;;;13.20;4.90;;;;;;;24.18;33.29;101888.81;104186;1293;62249;-82
2023/10/03 04:54:52;;;;;;;20.10;5.50;;;;;;;24.16;33.36;101887.73;104250;1294;59996;-80
2023/10/03 04:57:17;;;;;;;15.70;5.90;;;;;;;24.13;33.35;101893.29;104491;1296;62105;-82
2023/10/03 04:59:43;;;;;;;14.90;5.90;;;;;;;24.08;33.33;101898.33;104651;1292;60091;-81
2023/10/03 05:02:11;;;;;;;18.30;6.50;;;;;;;24.05;33.41;101901.35;104871;1294;61975;-81
2023/10/03 05:04:37;;;;;;;19.10;6.50;;;;;;;24.04;33.43;101903.21;104494;1292;59753;-81
2023/10/03 05:07:02;;;;;;;16.00;6.20;;;;;;;24.06;33.45;101903.98;104687;1294;62097;-82
2023/10/03 05:09:31;;;;;;;23.30;5.50;;;;;;;24.08;33.42;101902.76;104424;1293;61983;-81
2023/10/03 05:11:57;;;;;;;17.10;6.30;;;;;;;24.10;33.63;101907.67;104543;1293;60041;-80
2023/10/03 05:14:23;;;;;;;22.60;7.50;;;;;;;24.10;33.55;101906.22;104331;1293;62128;-79
2023/10/03 05:16:51;;;;;;;28.80;8.10;;;;;;;24.10;33.57;101907.67;104344;1293;62172;-80
2023/10/03 05:19:17;;;;;;;34.40;10.40;;;;;;;24.10;33.43;101910.91;104384;1294;62144;-80
2023/10/03 05:21:44;;;;;;;36.80;10.70;;;;;;;24.09;33.37;101908.86;105908;1293;59599;-80
2023/10/03 05:24:11;;;;;;;36.50;11.20;;;;;;;24.07;33.18;101906.95;106028;1293;59768;-80
2023/10/03 05:26:39;;;;;;;36.00;9.90;;;;;;;24.05;33.12;101913.73;106061;1292;59633;-81
2023/10/03 05:29:05;;;;;;;30.90;9.00;;;;;;;24.04;33.02;101918.17;106021;1292;75136;-80
2023/10/03 05:31:30;;;;;;;27.20;8.30;;;;;;;23.99;32.93;101921.20;105999;1294;60506;-81
2023/10/03 05:33:56;;;;;;;23.30;8.50;;;;;;;23.95;32.82;101925.21;104922;1293;62269;-81
2023/10/03 05:36:22;;;;;;;23.70;7.70;;;;;;;23.90;32.79;101928.20;103971;1296;62131;-80
2023/10/03 05:38:49;;;;;;;20.90;8.20;;;;;;;23.87;32.78;101934.34;104868;1292;59877;-80
2023/10/03 05:41:23;;;;;;;24.00;7.80;;;;;;;23.86;32.65;101932.06;104036;1294;62190;-80
2023/10/03 05:43:49;;;;;;;18.40;7.20;;;;;;;23.81;32.57;101937.45;104500;1293;62032;-80
2023/10/03 05:46:15;;;;;;;19.90;7.70;;;;;;;23.72;32.60;101938.21;104189;1292;72488;-80
2023/10/03 05:48:42;;;;;;;15.70;7.20;;;;;;;23.65;32.56;101939.01;104016;1293;62151;-79
2023/10/03 05:51:09;;;;;;;17.70;6.80;;;;;;;23.63;32.53;101941.79;104329;1293;62220;-81
2023/10/03 05:53:36;;;;;;;19.80;7.10;;;;;;;23.61;32.53;101942.48;104532;1292;62016;-80
2023/10/03 05:56:04;;;;;;;20.80;6.90;;;;;;;23.53;32.42;101944.08;104450;1293;62174;-80
2023/10/03 05:58:32;;;;;;;24.70;6.90;;;;;;;23.46;32.64;101945.83;104375;1295;74953;-81
2023/10/03 06:00:59;;;;;;;15.00;6.10;;;;;;;23.47;32.67;101945.88;104530;1292;62641;-80
2023/10/03 06:03:25;;;;;;;21.30;7.60;;;;;;;23.44;32.78;101950.21;104594;1291;59929;-81
2023/10/03 06:05:51;;;;;;;22.00;6.90;;;;;;;23.36;32.77;101953.95;104545;1294;62128;-81
2023/10/03 06:08:18;;;;;;;17.00;7.10;;;;;;;23.32;32.92;101955.43;104506;1293;62330;-80
2023/10/03 06:10:43;;;;;;;17.50;6.60;;;;;;;23.33;32.87;101955.77;104716;1293;61899;-82
2023/10/03 06:13:11;;;;;;;19.70;7.00;;;;;;;23.34;32.87;101954.41;104653;1297;60699;-81
2023/10/03 06:15:41;;;;;;;20.10;7.20;;;;;;;23.39;32.86;101956.46;104532;1293;62072;-80
2023/10/03 06:18:08;;;;;;;18.50;7.10;;;;;;;23.40;32.87;101953.84;105197;1292;74867;-81
2023/10/03 06:20:34;;;;;;;22.30;7.20;;;;;;;23.43;33.09;101954.20;104089;1294;62065;-80
2023/10/03 06:23:01;;;;;;;19.60;7.20;;;;;;;23.46;33.34;101953.52;104247;1294;62178;-81
2023/10/03 06:25:26;;;;;;;16.60;6.70;;;;;;;23.45;33.57;101954.46;104043;1293;63388;-79
2023/10/03 06:27:52;;;;;;;18.00;6.40;;;;;;;23.44;33.85;101953.47;103967;1293;62949;-79
2023/10/03 06:30:18;;;;;;;14.60;7.20;;;;;;;23.42;33.97;101954.29;103860;1293;64251;-79
2023/10/03 06:32:45;;;;;;;21.30;7.20;;;;;;;23.41;33.88;101950.75;103731;1295;62042;-79
2023/10/03 06:35:12;;;;;;;15.70;6.40;;;;;;;23.41;33.80;101952.19;103667;1294;62140;-78
2023/10/03 06:37:38;;;;;;;17.50;7.20;;;;;;;23.40;33.66;101955.31;103621;1292;62204;-80
2023/10/03 06:40:08;;;;;;;20.00;6.80;;;;;;;23.40;33.54;101957.12;103730;1292;62122;-79
2023/10/03 06:42:34;;;;;;;17.20;6.50;;;;;;;23.40;33.45;101955.10;103826;1297;63523;-78
2023/10/03 06:45:04;;;;;;;19.10;6.90;;;;;;;23.37;33.29;101960.15;103865;1294;62217;-79
2023/10/03 06:47:33;;;;;;;16.80;7.30;;;;;;;23.35;33.19;101959.77;103835;1291;75321;-80
2023/10/03 06:49:58;;;;;;;18.60;6.70;;;;;;;23.32;33.00;101958.88;103807;1292;60260;-80
2023/10/03 06:52:25;;;;;;;17.90;7.30;;;;;;;23.28;33.00;101957.14;104507;1292;62655;-82
2023/10/03 06:54:51;;;;;;;17.90;6.70;;;;;;;23.20;32.95;101958.03;104129;1292;62154;-80
2023/10/03 06:57:16;;;;;;;21.60;7.20;;;;;;;23.14;32.98;101955.88;104407;1292;60146;-79
2023/10/03 06:59:42;;;;;;;14.90;5.90;;;;;;;23.18;33.04;101956.30;104430;1292;62259;-81
2023/10/03 07:02:08;;;;;;;20.00;6.80;;;;;;;23.27;33.02;101958.84;104476;1292;62206;-80
2023/10/03 07:04:34;;;;;;;14.60;7.20;;;;;;;23.28;33.00;101956.81;104524;1293;60213;-80
2023/10/03 07:06:59;;;;;;;17.70;6.70;;;;;;;23.19;32.93;101960.23;104280;1292;72322;-80
2023/10/03 07:09:25;;;;;;;23.00;7.40;;;;;;;23.11;32.95;101959.75;104207;1293;62149;-79
2023/10/03 07:11:50;;;;;;;17.70;6.60;;;;;;;23.05;32.97;101962.63;104336;1294;61464;-79
2023/10/03 07:14:16;;;;;;;15.90;6.20;;;;;;;23.07;32.96;101962.16;104684;1294;62075;-80
2023/10/03 07:16:44;;;;;;;17.30;6.50;;;;;;;23.13;32.95;101964.54;104371;1292;62204;-79
2023/10/03 07:19:10;;;;;;;15.20;6.20;;;;;;;23.18;32.90;101964.95;104273;1294;64344;-79
2023/10/03 07:21:37;;;;;;;16.70;6.20;;;;;;;23.23;32.81;101961.01;104426;1293;62100;-78
2023/10/03 07:24:04;;;;;;;12.50;5.60;;;;;;;23.29;32.75;101960.89;104464;1293;62014;-80
2023/10/03 07:26:29;;;;;;;15.10;5.70;;;;;;;23.34;32.69;101959.82;104295;1294;62087;-81
2023/10/03 07:29:00;;;;;;;17.70;5.80;;;;;;;23.41;32.70;101957.96;104773;1291;63074;-80
2023/10/03 07:31:27;;;;;;;14.50;5.70;;;;;;;23.47;32.80;101959.35;104614;1292;62170;-80
2023/10/03 07:33:52;;;;;;;14.00;6.30;;;;;;;23.52;32.92;101959.95;104641;1291;62071;-80
2023/10/03 07:36:18;;;;;;;15.80;5.60;;;;;;;23.57;32.75;101961.98;104688;1294;59930;-80
2023/10/03 07:38:47;;;;;;;16.80;5.70;;;;;;;23.59;32.62;101962.69;104690;1291;62125;-79
2023/10/03 07:41:13;;;;;;;15.40;5.70;;;;;;;23.64;32.56;101960.65;104490;1293;62083;-79
2023/10/03 07:43:48;;;;;;;12.40;5.30;;;;;;;23.66;32.56;101958.54;104647;1294;61955;-80
2023/10/03 07:46:25;;;;;;;13.50;5.10;;;;;;;23.68;32.60;101955.16;104573;1293;72415;-81
2023/10/03 07:48:52;;;;;;;22.40;5.90;;;;;;;23.71;32.49;101954.21;104258;1294;75447;-80
2023/10/03 07:51:19;;;;;;;21.40;6.30;;;;;;;23.73;32.47;101950.90;105850;1294;60166;-81
2023/10/03 07:53:46;;;;;;;22.00;6.30;;;;;;;23.68;32.36;101949.41;105780;1293;60423;-81
2023/10/03 07:56:24;;;;;;;21.90;6.60;;;;;;;23.59;32.30;101950.33;105703;1293;72408;-79
2023/10/03 07:58:56;;;;;;;23.60;9.70;;;;;;;23.51;32.23;101950.84;105758;1292;75358;-80
2023/10/03 08:01:25;;;;;;;25.00;9.80;;;;;;;23.44;32.26;101953.77;105790;1294;60905;-81
2023/10/03 08:03:54;;;;;;;32.70;8.80;;;;;;;23.42;32.32;101952.46;105727;1291;59875;-81
2023/10/03 08:06:33;;;;;;;18.40;7.80;;;;;;;23.46;32.39;101950.79;105799;1294;73764;-79
2023/10/03 08:08:59;;;;;;;16.00;6.30;;;;;;;23.49;32.35;101948.81;105837;1294;75382;-81
2023/10/03 08:11:29;;;;;;;16.50;6.80;;;;;;;23.49;32.39;101945.05;105697;1293;59743;-82
2023/10/03 08:13:58;;;;;;;16.80;6.00;;;;;;;23.54;32.34;101944.92;105845;1291;60176;-80
2023/10/03 08:16:27;;;;;;;13.40;6.10;;;;;;;23.57;32.26;101944.66;105894;1293;72530;-80
2023/10/03 08:19:01;;;;;;;14.30;5.40;;;;;;;23.58;32.07;101937.98;105675;1296;75172;-82
2023/10/03 08:21:28;;;;;;;15.00;5.30;;;;;;;23.57;31.91;101937.36;104406;1292;62105;-80
2023/10/03 08:23:57;;;;;;;17.90;6.90;;;;;;;23.57;31.89;101938.58;104524;1293;61999;-79
2023/10/03 08:26:25;;;;;;;15.40;6.30;;;;;;;23.60;31.77;101937.84;104327;1293;71450;-79
2023/10/03 08:28:59;;;;;;;15.40;5.60;;;;;;;23.63;31.80;101936.80;104569;1294;75070;-79
2023/10/03 08:31:28;;;;;;;13.10;4.80;;;;;;;23.64;31.75;101934.91;104614;1293;62042;-80
2023/10/03 08:33:56;;;;;;;17.60;5.30;;;;;;;23.64;31.48;101932.39;104796;1291;62832;-79
2023/10/03 08:36:27;;;;;;;10.80;4.60;;;;;;;23.66;31.51;101931.03;104728;1292;71892;-81
2023/10/03 08:38:57;;;;;;;14.20;5.10;;;;;;;23.69;31.43;101930.83;104900;1293;75258;-81
2023/10/03 08:41:30;;;;;;;8.80;4.00;;;;;;;23.71;31.42;101931.41;104717;1292;62014;-79
2023/10/03 08:43:56;;;;;;;14.70;5.10;;;;;;;23.70;31.48;101934.73;104862;1294;62049;-80
2023/10/03 08:46:28;;;;;;;15.40;4.50;;;;;;;23.71;31.43;101932.86;104774;1293;60697;-82
2023/10/03 08:49:00;;;;;;;13.30;5.00;;;;;;;23.73;31.46;101929.10;104937;1294;75249;-81
2023/10/03 08:51:32;;;;;;;16.20;5.10;;;;;;;23.77;31.46;101926.35;104964;1293;62819;-82
2023/10/03 08:54:08;;;;;;;23.50;5.40;;;;;;;23.79;31.38;101922.11;104830;1292;62214;-81
2023/10/03 08:56:35;;;;;;;18.00;5.30;;;;;;;23.81;31.48;101922.17;104974;1291;72543;-82
2023/10/03 08:59:03;;;;;;;23.40;5.20;;;;;;;23.80;31.51;101921.85;105633;1292;75074;-81
2023/10/03 09:01:33;;;;;;;17.10;5.40;;;;;;;23.78;31.58;101920.00;105685;1293;59393;-80
2023/10/03 09:04:04;;;;;;;18.70;5.40;;;;;;;23.76;31.49;101918.11;105209;1294;62060;-80
2023/10/03 09:06:38;;;;;;;19.10;5.30;;;;;;;23.75;31.36;101914.44;104861;1294;72520;-80
2023/10/03 09:09:13;;;;;;;14.80;5.00;;;;;;;23.76;31.40;101914.55;104801;1294;74296;-79
2023/10/03 09:11:41;;;;;;;16.70;4.90;;;;;;;23.77;31.26;101915.59;105804;1293;60015;-80
2023/10/03 09:14:19;;;;;;;15.50;4.80;;;;;;;23.76;31.30;101913.48;105057;1292;62073;-84
2023/10/03 09:16:52;;;;;;;20.80;5.20;;;;;;;23.76;31.36;101914.03;104935;1292;73025;-81
2023/10/03 09:19:24;;;;;;;21.50;5.10;;;;;;;23.73;31.27;101913.84;104964;1294;75340;-80
2023/10/03 09:21:51;;;;;;;14.00;4.60;;;;;;;23.71;31.15;101911.66;104919;1292;60173;-80
2023/10/03 09:24:20;;;;;;;14.70;4.80;;;;;;;23.71;31.29;101916.84;104966;1294;64331;-79
2023/10/03 09:26:47;;;;;;;15.20;4.80;;;;;;;23.71;31.28;101913.61;105951;1292;72566;-79
2023/10/03 09:29:32;;;;;;;15.00;5.00;;;;;;;23.73;31.34;101912.79;105953;1291;75249;-80
2023/10/03 09:31:59;;;;;;;15.30;5.10;;;;;;;23.74;31.27;101909.45;105923;1293;60254;-81
2023/10/03 09:34:30;;;;;;;10.10;4.90;;;;;;;23.73;31.26;101908.98;105472;1294;62172;-79
2023/10/03 09:37:02;;;;;;;14.50;4.80;;;;;;;23.75;31.13;101899.69;104388;1293;73419;-79
2023/10/03 09:39:39;;;;;;;20.20;5.40;;;;;;;23.76;31.00;101901.43;105762;1293;75324;-82
2023/10/03 09:42:08;;;;;;;17.50;4.80;;;;;;;23.75;30.93;101902.58;105791;1294;62213;-78
2023/10/03 09:44:33;;;;;;;17.90;5.00;;;;;;;23.74;30.81;101897.48;104451;1293;62125;-79
2023/10/03 09:47:06;;;;;;;15.10;4.20;;;;;;;23.76;30.90;101892.83;104468;1294;62128;-80
2023/10/03 09:49:41;;;;;;;18.00;4.90;;;;;;;23.80;30.88;101887.92;104495;1295;75082;-79
2023/10/03 09:52:32;;;;;;;15.70;4.90;;;;;;;23.82;30.88;101885.81;104238;1293;61892;-81
2023/10/03 09:55:03;;;;;;;18.50;4.90;;;;;;;23.79;30.84;101881.11;104232;1295;62183;-80
2023/10/03 09:57:28;;;;;;;13.30;4.80;;;;;;;23.80;30.86;101874.95;104471;1294;72293;-80
2023/10/03 09:59:55;;;;;;;18.10;5.10;;;;;;;23.82;30.77;101874.65;104354;1293;62173;-80
2023/10/03 10:02:30;;;;;;;11.20;4.80;;;;;;;23.82;30.80;101872.15;104752;1292;60206;-81
2023/10/03 10:04:59;;;;;;;21.70;4.80;;;;;;;23.79;30.80;101869.42;105183;1292;60502;-81
2023/10/03 10:07:50;;;;;;;;;;;;;;;23.80;30.85;101866.86;105151;1293;72500;-80
2023/10/03 10:10:19;;;;;;;22.00;4.90;;;;;;;23.82;31.08;101869.77;105018;1292;75025;-80
2023/10/03 10:13:13;;;;;;;25.80;5.30;;;;;;;23.85;31.07;101863.66;104982;1294;62094;-80
2023/10/03 10:16:00;;;;;;;18.20;4.70;;;;;;;23.87;31.33;101861.17;104899;1291;62021;-80
2023/10/03 10:18:44;;;;;;;18.40;4.90;;;;;;;23.81;31.08;101853.63;105015;1294;72622;-80
2023/10/03 10:21:26;;;;;;;19.10;5.10;;;;;;;23.72;30.94;101848.89;104838;1293;75253;-80
2023/10/03 10:24:11;;;;;;;18.10;5.30;;;;;;;23.69;31.00;101850.11;104858;1293;61971;-80
2023/10/03 10:26:39;;;;;;;15.10;4.80;;;;;;;23.72;30.99;101844.55;104723;1294;62102;-81
2023/10/03 10:29:06;;;;;;;12.60;4.40;;;;;;;23.74;30.94;101842.60;104585;1295;62056;-79
2023/10/03 10:31:37;;;;;;;13.60;5.10;;;;;;;23.75;30.96;101836.93;104614;1293;62109;-80
2023/10/03 10:34:21;;;;;;;17.20;4.90;;;;;;;23.74;30.97;101837.42;104744;1293;61902;-80
2023/10/03 10:37:02;;;;;;;15.00;5.50;;;;;;;23.74;30.93;101835.09;104632;1293;62078;-80
2023/10/03 10:39:52;;;;;;;14.90;4.80;;;;;;;23.77;31.11;101831.80;104492;1294;72393;-79
2023/10/03 10:42:20;;;;;;;14.60;5.00;;;;;;;23.82;31.25;101832.19;104389;1296;75200;-79
2023/10/03 10:45:14;;;;;;;16.90;4.50;;;;;;;23.84;31.19;101826.86;104708;1294;60270;-80
2023/10/03 10:47:45;;;;;;;13.50;4.20;;;;;;;23.84;31.10;101824.52;104841;1293;61936;-82
2023/10/03 10:50:11;;;;;;;17.80;4.60;;;;;;;23.84;31.23;101818.79;104643;1293;72582;-82
2023/10/03 10:53:02;;;;;;;13.00;4.30;;;;;;;23.85;31.20;101813.83;104689;1293;60755;-80
2023/10/03 10:55:28;;;;;;;12.50;4.50;;;;;;;23.87;31.28;101806.32;104798;1292;62189;-80
2023/10/03 10:58:08;;;;;;;16.20;4.70;;;;;;;23.92;31.47;101801.68;104750;1293;62411;-81
2023/10/03 11:00:34;;;;;;;14.60;4.80;;;;;;;23.95;31.48;101800.09;104962;1293;72249;-82
2023/10/03 11:03:04;;;;;;;26.00;5.10;;;;;;;23.97;31.53;101793.46;104991;1294;76133;-82
2023/10/03 11:05:46;;;;;;;21.10;4.80;;;;;;;23.98;31.64;101790.53;104788;1293;61976;-81
2023/10/03 11:08:12;;;;;;;17.20;4.50;;;;;;;23.99;31.69;101789.55;104846;1293;61056;-81
2023/10/03 11:10:52;;;;;;;24.40;5.30;;;;;;;24.00;31.76;101784.51;104938;1299;60622;-81
2023/10/03 11:13:19;;;;;;;19.70;5.00;;;;;;;23.99;31.79;101785.59;104991;1293;75201;-81
2023/10/03 11:15:51;;;;;;;14.50;4.70;;;;;;;24.02;31.98;101781.96;105094;1292;59877;-81
2023/10/03 11:18:36;;;;;;;14.70;5.30;;;;;;;24.07;32.03;101778.04;104971;1293;60664;-82
2023/10/03 11:21:03;;;;;;;13.30;4.40;;;;;;;24.09;32.02;101766.23;105559;1297;72351;-80
2023/10/03 11:23:29;;;;;;;13.40;4.80;;;;;;;24.10;31.92;101767.40;105750;1294;75749;-84
2023/10/03 11:25:59;;;;;;;9.80;4.40;;;;;;;24.10;31.94;101762.94;105688;1292;60140;-82